Furacão MICHAEL 2018: trajetória, intensidade e histórico
15/10/2018, 18:00:00
6/10/2018, 18:00:00 – 15/10/2018, 18:00:00
Trajetória histórica
Acompanhe a evolução e o deslocamento de Furacão MICHAEL em 2018, com a trajetória completa registrada, ventos máximos sustentados de 140 nós, pressão central mínima e cronologia detalhada.
| Data | Hora | Tipo | Ventokm/h | PressãohPa |
|---|---|---|---|---|
| 15/10 | 18:00 | EXCiclone extratropical | 65 | 1001 |
| 15/10 | 15:00 | EXCiclone extratropical | 65 | 999 |
| 15/10 | 12:00 | EXCiclone extratropical | 65 | 996 |
| 15/10 | 09:00 | EXCiclone extratropical | 80 | 993 |
| 15/10 | 06:00 | EXCiclone extratropical | 95 | 989 |
| 15/10 | 03:00 | EXCiclone extratropical | 100 | 986 |
| 15/10 | 00:00 | EXCiclone extratropical | 100 | 982 |
| 14/10 | 21:00 | EXCiclone extratropical | 100 | 980 |
| 14/10 | 18:00 | EXCiclone extratropical | 100 | 978 |
| 14/10 | 15:00 | EXCiclone extratropical | 105 | 977 |
| 14/10 | 12:00 | EXCiclone extratropical | 110 | 975 |
| 14/10 | 09:00 | EXCiclone extratropical | 115 | 975 |
| 14/10 | 06:00 | EXCiclone extratropical | 120 | 975 |
| 14/10 | 03:00 | EXCiclone extratropical | 120 | 975 |
| 14/10 | 00:00 | EXCiclone extratropical | 120 | 975 |
| 13/10 | 21:00 | EXCiclone extratropical | 120 | 975 |
| 13/10 | 18:00 | EXCiclone extratropical | 120 | 975 |
| 13/10 | 15:00 | EXCiclone extratropical | 120 | 975 |
| 13/10 | 12:00 | EXCiclone extratropical | 120 | 975 |
| 13/10 | 09:00 | EXCiclone extratropical | 120 | 975 |
| 13/10 | 06:00 | EXCiclone extratropical | 120 | 975 |
| 13/10 | 03:00 | EXCiclone extratropical | 120 | 975 |
| 13/10 | 00:00 | EXCiclone extratropical | 120 | 975 |
| 12/10 | 21:00 | EXCiclone extratropical | 115 | 976 |
| 12/10 | 18:00 | EXCiclone extratropical | 110 | 977 |
| 12/10 | 15:00 | EXCiclone extratropical | 110 | 979 |
| 12/10 | 12:00 | EXCiclone extratropical | 110 | 980 |
| 12/10 | 09:00 | EXCiclone extratropical | 110 | 982 |
| 12/10 | 06:00 | EXCiclone extratropical | 110 | 983 |
| 12/10 | 03:00 | EXCiclone extratropical | 100 | 986 |
| 12/10 | 00:00 | EXCiclone extratropical | 95 | 988 |
| 11/10 | 21:00 | TSTempestade tropical | 90 | 990 |
| 11/10 | 18:00 | TSTempestade tropical | 85 | 991 |
| 11/10 | 15:00 | TSTempestade tropical | 85 | 989 |
| 11/10 | 12:00 | TSTempestade tropical | 85 | 987 |
| 11/10 | 09:00 | TSTempestade tropical | 90 | 983 |
| 11/10 | 06:00 | TSTempestade tropical | 95 | 979 |
| 11/10 | 03:00 | HFuracão | 120 | 968 |
| 11/10 | 00:00 | HFuracão | 150 | 957 |
| 10/10 | 21:00 | HFuracão | 200 | 939 |
| 10/10 | 18:00 | MHFuracão de grande intensidade | 250 | 920 |
| 10/10 | 17:30 | MHFuracão de grande intensidade | 260 | 919 |
| 10/10 | 15:00 | HFuracão | 245 | 926 |
| 10/10 | 12:00 | MHFuracão de grande intensidade | 230 | 934 |
| 10/10 | 09:00 | HFuracão | 230 | 940 |
| 10/10 | 06:00 | MHFuracão de grande intensidade | 220 | 945 |
| 10/10 | 03:00 | HFuracão | 215 | 949 |
| 10/10 | 00:00 | MHFuracão de grande intensidade | 205 | 952 |
| 09/10 | 21:00 | HFuracão | 195 | 957 |
| 09/10 | 18:00 | MHFuracão de grande intensidade | 185 | 961 |
| 09/10 | 15:00 | HFuracão | 175 | 965 |
| 09/10 | 12:00 | HFuracão | 165 | 968 |
| 09/10 | 09:00 | HFuracão | 165 | 971 |
| 09/10 | 06:00 | HFuracão | 155 | 973 |
| 09/10 | 03:00 | HFuracão | 155 | 972 |
| 09/10 | 00:00 | HFuracão | 155 | 971 |
| 08/10 | 21:00 | HFuracão | 150 | 974 |
| 08/10 | 18:00 | HFuracão | 140 | 977 |
| 08/10 | 15:00 | HFuracão | 130 | 980 |
| 08/10 | 12:00 | HFuracão | 120 | 982 |
| 08/10 | 09:00 | TSTempestade tropical | 115 | 983 |
| 08/10 | 06:00 | TSTempestade tropical | 110 | 984 |
| 08/10 | 03:00 | TSTempestade tropical | 100 | 990 |
| 08/10 | 00:00 | TSTempestade tropical | 95 | 996 |
| 07/10 | 21:00 | TSTempestade tropical | 90 | 998 |
| 07/10 | 18:00 | TSTempestade tropical | 85 | 999 |
| 07/10 | 15:00 | TSTempestade tropical | 75 | 1001 |
| 07/10 | 12:00 | TSTempestade tropical | 65 | 1003 |
| 07/10 | 09:00 | TDDepressão tropical | 60 | 1004 |
| 07/10 | 06:00 | TDDepressão tropical | 55 | 1004 |
| 07/10 | 03:00 | RBaixa remanescente | 50 | 1004 |
| 07/10 | 00:00 | RBaixa remanescente | 45 | 1004 |
| 06/10 | 21:00 | RBaixa remanescente | 45 | 1005 |
| 06/10 | 18:00 | RBaixa remanescente | 45 | 1006 |
Cronologia de localização
74 Registos de localizaçãoTambém pode encontrar estas ferramentas úteis
A localização, a extensão e o estado de cada evento podem ser atualizados em momentos diferentes consoante a fonte. Confirme decisões importantes junto das autoridades oficiais de emergência.
Os registos de eventos provêm da NASA EONET e são complementados por registos de deslizamentos de terra do USGS FDSN. As análises e previsões de tempestades podem utilizar a NOAA NHC ou o JTWC, com registos históricos ATCF da UCAR/NCAR quando disponíveis. As imagens de satélite provêm da NASA Worldview/GIBS (GOES e Himawari) ou da EUMETSAT Meteosat, consoante a cobertura do mapa.
Fontes: NASA EONET · USGS · NOAA NHC · JTWC · UCAR/NCAR ATCF · NASA Worldview/GIBS · EUMETSAT Meteosat · OpenStreetMap contributors